Terminal Aerodrome Forecast
Issued by NWS

Home | Current Version | Previous Version | Text Only | Print | Product List | Glossary On
Versions: 1 2 3 4 5 6 7 8 9 10 11 12 13
372
FTUS42 KFFC 161120
TAFRYY
TAF
KRYY 161120Z 1612/1712 27005KT P6SM SCT250
     FM161900 28005KT P6SM SCT250
     FM170000 00000KT P6SM SCT250=

USA.gov is the U.S. government's official web portal to all federal, state and local government web resources and services.